sensor_id;sensor_type;location;lat;lon;timestamp;pressure;altitude;pressure_sealevel;temperature;humidity
47556;BME280;33291;46.222;26.460;2023-04-07T00:01:08;96017.66;;;1.09;73.77
47556;BME280;33291;46.222;26.460;2023-04-07T00:03:33;96024.16;;;1.15;74.00
47556;BME280;33291;46.222;26.460;2023-04-07T00:05:59;96026.66;;;1.16;74.04
47556;BME280;33291;46.222;26.460;2023-04-07T00:08:25;96031.69;;;1.18;73.87
47556;BME280;33291;46.222;26.460;2023-04-07T00:10:50;96024.81;;;1.18;73.80
47556;BME280;33291;46.222;26.460;2023-04-07T00:13:16;96025.75;;;1.17;73.64
47556;BME280;33291;46.222;26.460;2023-04-07T00:15:41;96011.72;;;1.09;73.24
47556;BME280;33291;46.222;26.460;2023-04-07T00:18:07;96027.38;;;1.18;73.39
47556;BME280;33291;46.222;26.460;2023-04-07T00:20:32;96023.91;;;1.19;73.36
47556;BME280;33291;46.222;26.460;2023-04-07T14:08:50;96448.22;;;3.68;73.78
47556;BME280;33291;46.222;26.460;2023-04-07T14:11:19;96446.56;;;3.67;73.11
47556;BME280;33291;46.222;26.460;2023-04-07T14:13:46;96456.84;;;3.67;73.25
47556;BME280;33291;46.222;26.460;2023-04-07T14:16:12;96449.94;;;3.67;73.43
47556;BME280;33291;46.222;26.460;2023-04-07T14:18:37;96458.41;;;3.69;73.69
47556;BME280;33291;46.222;26.460;2023-04-07T14:21:04;96450.69;;;3.69;73.49
47556;BME280;33291;46.222;26.460;2023-04-07T14:23:30;96448.50;;;3.63;73.49
47556;BME280;33291;46.222;26.460;2023-04-07T14:25:59;96456.03;;;3.66;73.96
47556;BME280;33291;46.222;26.460;2023-04-07T14:28:26;96461.81;;;3.70;74.68
47556;BME280;33291;46.222;26.460;2023-04-07T14:30:53;96461.81;;;3.70;75.02
47556;BME280;33291;46.222;26.460;2023-04-07T14:33:19;96463.47;;;3.71;76.30
47556;BME280;33291;46.222;26.460;2023-04-07T14:35:45;96461.00;;;3.69;76.53
47556;BME280;33291;46.222;26.460;2023-04-07T14:38:11;96460.16;;;3.69;77.15
47556;BME280;33291;46.222;26.460;2023-04-07T14:40:36;96467.88;;;3.69;77.70
47556;BME280;33291;46.222;26.460;2023-04-07T14:43:02;96464.50;;;3.68;78.27
47556;BME280;33291;46.222;26.460;2023-04-07T14:45:28;96458.63;;;3.66;78.14
47556;BME280;33291;46.222;26.460;2023-04-07T14:47:54;96469.63;;;3.68;78.46
47556;BME280;33291;46.222;26.460;2023-04-07T14:50:20;96464.69;;;3.65;79.22
47556;BME280;33291;46.222;26.460;2023-04-07T14:52:45;96465.78;;;3.61;80.17
47556;BME280;33291;46.222;26.460;2023-04-07T14:55:11;96463.59;;;3.55;80.05
47556;BME280;33291;46.222;26.460;2023-04-07T14:57:37;96470.59;;;3.53;80.96
47556;BME280;33291;46.222;26.460;2023-04-07T15:00:03;96466.84;;;3.44;81.25
47556;BME280;33291;46.222;26.460;2023-04-07T15:02:32;96475.22;;;3.48;81.40
47556;BME280;33291;46.222;26.460;2023-04-07T15:04:58;96480.66;;;3.43;81.84
47556;BME280;33291;46.222;26.460;2023-04-07T15:07:24;96485.72;;;3.45;81.86
47556;BME280;33291;46.222;26.460;2023-04-07T15:09:50;96476.97;;;3.47;82.05
47556;BME280;33291;46.222;26.460;2023-04-07T15:12:15;96485.53;;;3.48;82.45
47556;BME280;33291;46.222;26.460;2023-04-07T15:14:41;96483.16;;;3.45;82.49
47556;BME280;33291;46.222;26.460;2023-04-07T15:17:06;96479.63;;;3.46;82.53
47556;BME280;33291;46.222;26.460;2023-04-07T15:19:32;96484.06;;;3.44;82.73
47556;BME280;33291;46.222;26.460;2023-04-07T15:21:57;96484.25;;;3.41;82.86
47556;BME280;33291;46.222;26.460;2023-04-07T15:24:23;96488.03;;;3.35;83.36
47556;BME280;33291;46.222;26.460;2023-04-07T15:26:48;96488.84;;;3.35;83.59
47556;BME280;33291;46.222;26.460;2023-04-07T15:29:14;96474.06;;;3.25;84.10
47556;BME280;33291;46.222;26.460;2023-04-07T15:31:39;96490.06;;;3.30;84.07
47556;BME280;33291;46.222;26.460;2023-04-07T15:34:05;96500.38;;;3.30;84.61
47556;BME280;33291;46.222;26.460;2023-04-07T15:36:31;96492.53;;;3.31;84.46
47556;BME280;33291;46.222;26.460;2023-04-07T15:39:01;96484.25;;;3.26;84.58
47556;BME280;33291;46.222;26.460;2023-04-07T15:41:28;96495.03;;;3.33;84.79
47556;BME280;33291;46.222;26.460;2023-04-07T15:43:53;96491.69;;;3.31;84.74
47556;BME280;33291;46.222;26.460;2023-04-07T15:46:19;96492.72;;;3.28;84.89
47556;BME280;33291;46.222;26.460;2023-04-07T15:48:44;96491.97;;;3.26;85.05
47556;BME280;33291;46.222;26.460;2023-04-07T15:51:11;96503.41;;;3.22;84.91
47556;BME280;33291;46.222;26.460;2023-04-07T15:53:37;96494.75;;;3.23;85.10
47556;BME280;33291;46.222;26.460;2023-04-07T15:56:02;96491.34;;;3.23;85.20
47556;BME280;33291;46.222;26.460;2023-04-07T15:58:30;96502.56;;;3.22;85.63
47556;BME280;33291;46.222;26.460;2023-04-07T16:00:55;96508.75;;;3.19;85.56
47556;BME280;33291;46.222;26.460;2023-04-07T16:03:21;96514.06;;;3.16;85.51
47556;BME280;33291;46.222;26.460;2023-04-07T16:05:46;96510.94;;;3.11;86.14
47556;BME280;33291;46.222;26.460;2023-04-07T16:08:12;96513.50;;;3.11;85.85
47556;BME280;33291;46.222;26.460;2023-04-07T16:10:37;96517.75;;;3.12;86.44
47556;BME280;33291;46.222;26.460;2023-04-07T16:13:03;96506.16;;;3.05;86.36
47556;BME280;33291;46.222;26.460;2023-04-07T16:15:28;96516.09;;;3.11;86.58
47556;BME280;33291;46.222;26.460;2023-04-07T16:17:54;96519.41;;;3.13;86.69
47556;BME280;33291;46.222;26.460;2023-04-07T16:20:19;96520.31;;;3.12;86.45
47556;BME280;33291;46.222;26.460;2023-04-07T16:22:46;96520.50;;;3.09;86.63
47556;BME280;33291;46.222;26.460;2023-04-07T16:25:13;96516.72;;;3.00;86.84
47556;BME280;33291;46.222;26.460;2023-04-07T16:27:39;96521.97;;;2.98;87.32
47556;BME280;33291;46.222;26.460;2023-04-07T16:30:07;96528.28;;;2.93;87.48
47556;BME280;33291;46.222;26.460;2023-04-07T16:32:33;96528.28;;;2.93;87.63
47556;BME280;33291;46.222;26.460;2023-04-07T16:34:59;96531.81;;;2.92;87.77
47556;BME280;33291;46.222;26.460;2023-04-07T16:37:24;96534.47;;;2.90;88.02
47556;BME280;33291;46.222;26.460;2023-04-07T16:39:53;96538.69;;;2.91;87.79
47556;BME280;33291;46.222;26.460;2023-04-07T16:42:19;96541.25;;;2.91;87.89
47556;BME280;33291;46.222;26.460;2023-04-07T16:44:44;96538.59;;;2.93;87.73
47556;BME280;33291;46.222;26.460;2023-04-07T16:47:10;96544.75;;;2.90;87.86
47556;BME280;33291;46.222;26.460;2023-04-07T16:49:35;96537.41;;;2.84;87.66
47556;BME280;33291;46.222;26.460;2023-04-07T16:52:01;96552.94;;;2.82;88.23
47556;BME280;33291;46.222;26.460;2023-04-07T16:54:26;96550.59;;;2.78;88.51
47556;BME280;33291;46.222;26.460;2023-04-07T16:56:52;96563.56;;;2.76;88.37
47556;BME280;33291;46.222;26.460;2023-04-07T16:59:17;96565.31;;;2.76;88.90
47556;BME280;33291;46.222;26.460;2023-04-07T17:01:43;96561.91;;;2.75;88.85
47556;BME280;33291;46.222;26.460;2023-04-07T17:04:09;96566.56;;;2.69;89.13
47556;BME280;33291;46.222;26.460;2023-04-07T17:06:34;96565.66;;;2.70;89.18
47556;BME280;33291;46.222;26.460;2023-04-07T17:08:59;96565.13;;;2.64;89.27
47556;BME280;33291;46.222;26.460;2023-04-07T17:11:25;96576.22;;;2.65;89.43
47556;BME280;33291;46.222;26.460;2023-04-07T17:13:50;96568.22;;;2.55;89.56
47556;BME280;33291;46.222;26.460;2023-04-07T17:16:19;96572.34;;;2.58;89.48
47556;BME280;33291;46.222;26.460;2023-04-07T17:18:44;96586.84;;;2.59;89.78
47556;BME280;33291;46.222;26.460;2023-04-07T17:21:11;96587.84;;;2.56;89.97
47556;BME280;33291;46.222;26.460;2023-04-07T17:23:37;96599.16;;;2.54;90.42
47556;BME280;33291;46.222;26.460;2023-04-07T17:26:03;96584.91;;;2.48;90.44
47556;BME280;33291;46.222;26.460;2023-04-07T17:28:29;96600.16;;;2.51;90.82
47556;BME280;33291;46.222;26.460;2023-04-07T17:30:54;96590.78;;;2.50;90.79
47556;BME280;33291;46.222;26.460;2023-04-07T17:33:20;96599.97;;;2.54;90.54
47556;BME280;33291;46.222;26.460;2023-04-07T17:35:45;96596.91;;;2.47;90.53
47556;BME280;33291;46.222;26.460;2023-04-07T17:38:14;96607.28;;;2.46;90.82
47556;BME280;33291;46.222;26.460;2023-04-07T17:40:39;96604.78;;;2.44;91.22
47556;BME280;33291;46.222;26.460;2023-04-07T17:43:05;96609.13;;;2.44;91.41
47556;BME280;33291;46.222;26.460;2023-04-07T17:45:33;96611.69;;;2.44;91.33
47556;BME280;33291;46.222;26.460;2023-04-07T17:47:59;96619.41;;;2.44;91.29
47556;BME280;33291;46.222;26.460;2023-04-07T17:50:29;96618.75;;;2.40;91.41
47556;BME280;33291;46.222;26.460;2023-04-07T17:52:55;96623.91;;;2.40;91.36
47556;BME280;33291;46.222;26.460;2023-04-07T17:55:20;96626.56;;;2.39;91.58
47556;BME280;33291;46.222;26.460;2023-04-07T17:57:46;96625.06;;;2.35;91.70
47556;BME280;33291;46.222;26.460;2023-04-07T18:00:14;96632.84;;;2.33;91.79
47556;BME280;33291;46.222;26.460;2023-04-07T18:02:39;96634.69;;;2.31;91.73
47556;BME280;33291;46.222;26.460;2023-04-07T18:05:05;96633.94;;;2.29;92.04
47556;BME280;33291;46.222;26.460;2023-04-07T18:07:31;96634.19;;;2.24;92.49
47556;BME280;33291;46.222;26.460;2023-04-07T18:09:58;96632.72;;;2.20;92.77
47556;BME280;33291;46.222;26.460;2023-04-07T18:12:23;96639.31;;;2.24;92.46
47556;BME280;33291;46.222;26.460;2023-04-07T18:14:49;96639.31;;;2.24;92.47
47556;BME280;33291;46.222;26.460;2023-04-07T18:17:15;96631.88;;;2.20;92.57
47556;BME280;33291;46.222;26.460;2023-04-07T18:19:40;96649.59;;;2.24;92.60
47556;BME280;33291;46.222;26.460;2023-04-07T18:22:06;96653.09;;;2.23;92.49
47556;BME280;33291;46.222;26.460;2023-04-07T18:24:34;96650.69;;;2.20;93.03
47556;BME280;33291;46.222;26.460;2023-04-07T18:27:00;96648.44;;;2.14;93.01
47556;BME280;33291;46.222;26.460;2023-04-07T18:29:26;96649.78;;;2.21;93.17
47556;BME280;33291;46.222;26.460;2023-04-07T18:31:52;96660.97;;;2.20;93.37
47556;BME280;33291;46.222;26.460;2023-04-07T18:34:18;96652.50;;;2.18;93.18
47556;BME280;33291;46.222;26.460;2023-04-07T18:36:43;96663.56;;;2.20;93.13
47556;BME280;33291;46.222;26.460;2023-04-07T18:39:09;96669.50;;;2.21;93.49
47556;BME280;33291;46.222;26.460;2023-04-07T18:41:35;96670.50;;;2.18;92.93
47556;BME280;33291;46.222;26.460;2023-04-07T18:44:01;96659.81;;;2.10;93.19
47556;BME280;33291;46.222;26.460;2023-04-07T18:46:26;96663.84;;;2.14;93.60
47556;BME280;33291;46.222;26.460;2023-04-07T18:48:52;96672.41;;;2.15;93.63
47556;BME280;33291;46.222;26.460;2023-04-07T18:51:18;96669.84;;;2.15;93.57
47556;BME280;33291;46.222;26.460;2023-04-07T18:53:44;96664.72;;;2.15;94.12
47556;BME280;33291;46.222;26.460;2023-04-07T18:56:09;96672.41;;;2.15;93.92
47556;BME280;33291;46.222;26.460;2023-04-07T18:58:35;96666.44;;;2.14;93.99
47556;BME280;33291;46.222;26.460;2023-04-07T19:01:08;96679.28;;;2.14;93.65
47556;BME280;33291;46.222;26.460;2023-04-07T19:03:34;96670.84;;;2.12;93.75
47556;BME280;33291;46.222;26.460;2023-04-07T19:05:59;96658.41;;;2.04;94.11
47556;BME280;33291;46.222;26.460;2023-04-07T19:08:26;96665.28;;;2.04;94.33
47556;BME280;33291;46.222;26.460;2023-04-07T19:10:52;96673.00;;;2.04;94.71
47556;BME280;33291;46.222;26.460;2023-04-07T19:13:18;96673.91;;;2.03;94.44
47556;BME280;33291;46.222;26.460;2023-04-07T19:15:43;96668.03;;;2.01;94.63
47556;BME280;33291;46.222;26.460;2023-04-07T19:18:10;96665.69;;;1.96;94.27
47556;BME280;33291;46.222;26.460;2023-04-07T19:20:36;96679.19;;;2.00;94.42
47556;BME280;33291;46.222;26.460;2023-04-07T19:23:01;96678.47;;;1.98;94.59
47556;BME280;33291;46.222;26.460;2023-04-07T19:25:27;96669.97;;;1.95;94.88
47556;BME280;33291;46.222;26.460;2023-04-07T19:27:54;96671.00;;;1.93;95.00
47556;BME280;33291;46.222;26.460;2023-04-07T19:30:19;96666.09;;;1.88;94.96
47556;BME280;33291;46.222;26.460;2023-04-07T19:32:45;96676.31;;;1.90;94.95
47556;BME280;33291;46.222;26.460;2023-04-07T19:35:11;96674.63;;;1.89;95.12
47556;BME280;33291;46.222;26.460;2023-04-07T19:37:39;96669.66;;;1.86;95.37
47556;BME280;33291;46.222;26.460;2023-04-07T19:40:06;96667.34;;;1.81;95.26
47556;BME280;33291;46.222;26.460;2023-04-07T19:42:32;96665.66;;;1.80;95.26
47556;BME280;33291;46.222;26.460;2023-04-07T19:44:58;96681.66;;;1.85;95.61
47556;BME280;33291;46.222;26.460;2023-04-07T19:47:29;96671.78;;;1.77;95.93
47556;BME280;33291;46.222;26.460;2023-04-07T19:49:54;96686.03;;;1.83;95.83
47556;BME280;33291;46.222;26.460;2023-04-07T19:52:20;96688.63;;;1.83;96.07
47556;BME280;33291;46.222;26.460;2023-04-07T19:54:46;96688.63;;;1.83;95.63
47556;BME280;33291;46.222;26.460;2023-04-07T19:57:12;96693.69;;;1.85;96.10
47556;BME280;33291;46.222;26.460;2023-04-07T19:59:39;96687.88;;;1.81;96.03
47556;BME280;33291;46.222;26.460;2023-04-07T20:02:06;96691.19;;;1.83;96.19
47556;BME280;33291;46.222;26.460;2023-04-07T20:04:31;96693.75;;;1.83;96.40
47556;BME280;33291;46.222;26.460;2023-04-07T20:06:57;96696.41;;;1.82;96.41
47556;BME280;33291;46.222;26.460;2023-04-07T20:09:22;96696.47;;;1.80;96.11
47556;BME280;33291;46.222;26.460;2023-04-07T20:11:51;96701.63;;;1.80;96.30
47556;BME280;33291;46.222;26.460;2023-04-07T20:14:16;96702.53;;;1.79;96.45
47556;BME280;33291;46.222;26.460;2023-04-07T20:16:42;96704.34;;;1.77;96.52
47556;BME280;33291;46.222;26.460;2023-04-07T20:19:07;96694.97;;;1.76;96.81
47556;BME280;33291;46.222;26.460;2023-04-07T20:21:34;96696.56;;;1.78;97.07
47556;BME280;33291;46.222;26.460;2023-04-07T20:23:59;96687.34;;;1.74;97.01
47556;BME280;33291;46.222;26.460;2023-04-07T20:26:25;96699.78;;;1.82;97.07
47556;BME280;33291;46.222;26.460;2023-04-07T20:28:51;96703.28;;;1.81;97.37
47556;BME280;33291;46.222;26.460;2023-04-07T20:31:17;96708.50;;;1.80;97.13
47556;BME280;33291;46.222;26.460;2023-04-07T20:33:43;96710.22;;;1.79;97.20
47556;BME280;33291;46.222;26.460;2023-04-07T20:36:09;96706.09;;;1.76;97.51
47556;BME280;33291;46.222;26.460;2023-04-07T20:38:35;96700.03;;;1.77;97.37
47556;BME280;33291;46.222;26.460;2023-04-07T20:41:00;96705.09;;;1.79;97.54
47556;BME280;33291;46.222;26.460;2023-04-07T20:43:26;96711.97;;;1.78;97.90
47556;BME280;33291;46.222;26.460;2023-04-07T20:45:52;96703.78;;;1.72;97.59
47556;BME280;33291;46.222;26.460;2023-04-07T20:48:18;96705.41;;;1.73;97.86
47556;BME280;33291;46.222;26.460;2023-04-07T20:50:51;96709.66;;;1.74;97.88
47556;BME280;33291;46.222;26.460;2023-04-07T20:53:17;96719.75;;;1.77;98.01
47556;BME280;33291;46.222;26.460;2023-04-07T20:55:43;96711.16;;;1.78;98.35
47556;BME280;33291;46.222;26.460;2023-04-07T20:58:09;96710.22;;;1.79;98.01
47556;BME280;33291;46.222;26.460;2023-04-07T21:00:35;96715.38;;;1.79;98.30
47556;BME280;33291;46.222;26.460;2023-04-07T21:03:01;96711.25;;;1.76;98.66
47556;BME280;33291;46.222;26.460;2023-04-07T21:05:27;96716.28;;;1.78;98.62
47556;BME280;33291;46.222;26.460;2023-04-07T21:07:53;96713.81;;;1.76;98.62
47556;BME280;33291;46.222;26.460;2023-04-07T21:10:18;96712.22;;;1.74;98.57
47556;BME280;33291;46.222;26.460;2023-04-07T21:12:44;96717.34;;;1.74;98.92
47556;BME280;33291;46.222;26.460;2023-04-07T21:15:10;96716.78;;;1.69;99.05
47556;BME280;33291;46.222;26.460;2023-04-07T21:17:36;96720.06;;;1.71;99.35
47556;BME280;33291;46.222;26.460;2023-04-07T21:20:02;96726.09;;;1.70;99.48
47556;BME280;33291;46.222;26.460;2023-04-07T21:22:29;96725.28;;;1.69;99.70
47556;BME280;33291;46.222;26.460;2023-04-07T21:24:54;96722.81;;;1.68;99.72
47556;BME280;33291;46.222;26.460;2023-04-07T21:27:20;96714.44;;;1.64;100.00
47556;BME280;33291;46.222;26.460;2023-04-07T21:29:46;96727.94;;;1.68;99.95
47556;BME280;33291;46.222;26.460;2023-04-07T21:32:11;96720.31;;;1.66;99.87
47556;BME280;33291;46.222;26.460;2023-04-07T21:34:38;96711.19;;;1.60;100.00
47556;BME280;33291;46.222;26.460;2023-04-07T21:37:04;96721.13;;;1.67;100.00
47556;BME280;33291;46.222;26.460;2023-04-07T21:39:31;96711.19;;;1.60;100.00
47556;BME280;33291;46.222;26.460;2023-04-07T21:41:57;96721.97;;;1.67;100.00
47556;BME280;33291;46.222;26.460;2023-04-07T21:44:22;96716.06;;;1.65;100.00
47556;BME280;33291;46.222;26.460;2023-04-07T21:46:48;96724.63;;;1.66;100.00
47556;BME280;33291;46.222;26.460;2023-04-07T21:49:13;96722.97;;;1.65;100.00
47556;BME280;33291;46.222;26.460;2023-04-07T21:51:42;96724.88;;;1.61;100.00
47556;BME280;33291;46.222;26.460;2023-04-07T21:54:08;96720.72;;;1.58;100.00
47556;BME280;33291;46.222;26.460;2023-04-07T21:56:33;96723.34;;;1.57;100.00
47556;BME280;33291;46.222;26.460;2023-04-07T21:58:59;96721.69;;;1.56;100.00
47556;BME280;33291;46.222;26.460;2023-04-07T22:01:25;96722.66;;;1.53;100.00
47556;BME280;33291;46.222;26.460;2023-04-07T22:03:51;96722.81;;;1.50;100.00
47556;BME280;33291;46.222;26.460;2023-04-07T22:06:16;96721.25;;;1.48;100.00
47556;BME280;33291;46.222;26.460;2023-04-07T22:08:43;96719.66;;;1.45;100.00
47556;BME280;33291;46.222;26.460;2023-04-07T22:11:08;96724.06;;;1.43;100.00
47556;BME280;33291;46.222;26.460;2023-04-07T22:13:34;96717.31;;;1.40;100.00
47556;BME280;33291;46.222;26.460;2023-04-07T22:16:00;96723.34;;;1.39;100.00
47556;BME280;33291;46.222;26.460;2023-04-07T22:18:29;96725.84;;;1.41;100.00
47556;BME280;33291;46.222;26.460;2023-04-07T22:20:55;96728.41;;;1.41;100.00
47556;BME280;33291;46.222;26.460;2023-04-07T22:23:21;96729.50;;;1.37;100.00
47556;BME280;33291;46.222;26.460;2023-04-07T22:25:46;96725.34;;;1.34;100.00
47556;BME280;33291;46.222;26.460;2023-04-07T22:28:13;96708.72;;;1.24;100.00
47556;BME280;33291;46.222;26.460;2023-04-07T22:30:39;96723.97;;;1.27;100.00
47556;BME280;33291;46.222;26.460;2023-04-07T22:33:05;96723.97;;;1.27;100.00
47556;BME280;33291;46.222;26.460;2023-04-07T22:35:30;96729.97;;;1.28;100.00
47556;BME280;33291;46.222;26.460;2023-04-07T22:37:56;96727.38;;;1.28;100.00
47556;BME280;33291;46.222;26.460;2023-04-07T22:40:21;96724.97;;;1.24;100.00
47556;BME280;33291;46.222;26.460;2023-04-07T22:42:47;96731.91;;;1.22;100.00
47556;BME280;33291;46.222;26.460;2023-04-07T22:45:13;96726.84;;;1.21;100.00
47556;BME280;33291;46.222;26.460;2023-04-07T22:47:39;96713.66;;;1.11;100.00
47556;BME280;33291;46.222;26.460;2023-04-07T22:50:05;96727.22;;;1.13;100.00
47556;BME280;33291;46.222;26.460;2023-04-07T22:52:31;96726.41;;;1.13;100.00
47556;BME280;33291;46.222;26.460;2023-04-07T22:54:56;96728.97;;;1.13;100.00
47556;BME280;33291;46.222;26.460;2023-04-07T22:57:22;96728.03;;;1.14;100.00
47556;BME280;33291;46.222;26.460;2023-04-07T22:59:49;96729.72;;;1.15;100.00
47556;BME280;33291;46.222;26.460;2023-04-07T23:02:14;96732.44;;;1.12;100.00
47556;BME280;33291;46.222;26.460;2023-04-07T23:04:40;96727.28;;;1.12;100.00
47556;BME280;33291;46.222;26.460;2023-04-07T23:07:06;96724.97;;;1.07;100.00
47556;BME280;33291;46.222;26.460;2023-04-07T23:09:31;96730.97;;;1.06;100.00
47556;BME280;33291;46.222;26.460;2023-04-07T23:11:57;96736.88;;;1.08;100.00
47556;BME280;33291;46.222;26.460;2023-04-07T23:14:22;96741.25;;;1.06;100.00
47556;BME280;33291;46.222;26.460;2023-04-07T23:16:48;96737.84;;;1.05;100.00
47556;BME280;33291;46.222;26.460;2023-04-07T23:19:13;96732.06;;;1.02;100.00
47556;BME280;33291;46.222;26.460;2023-04-07T23:21:40;96737.19;;;1.02;100.00
47556;BME280;33291;46.222;26.460;2023-04-07T23:24:07;96727.00;;;1.00;100.00
47556;BME280;33291;46.222;26.460;2023-04-07T23:26:32;96723.06;;;0.93;100.00
47556;BME280;33291;46.222;26.460;2023-04-07T23:28:58;96733.09;;;0.98;100.00
47556;BME280;33291;46.222;26.460;2023-04-07T23:31:23;96726.16;;;1.00;100.00
47556;BME280;33291;46.222;26.460;2023-04-07T23:33:49;96731.28;;;1.00;100.00
47556;BME280;33291;46.222;26.460;2023-04-07T23:36:15;96725.25;;;1.01;100.00
47556;BME280;33291;46.222;26.460;2023-04-07T23:38:40;96731.28;;;1.00;100.00
47556;BME280;33291;46.222;26.460;2023-04-07T23:41:06;96727.06;;;0.99;100.00
47556;BME280;33291;46.222;26.460;2023-04-07T23:43:33;96730.53;;;0.98;100.00
47556;BME280;33291;46.222;26.460;2023-04-07T23:45:58;96723.22;;;0.90;100.00
47556;BME280;33291;46.222;26.460;2023-04-07T23:48:24;96730.53;;;0.98;100.00
47556;BME280;33291;46.222;26.460;2023-04-07T23:50:53;96724.78;;;0.93;100.00
47556;BME280;33291;46.222;26.460;2023-04-07T23:53:18;96731.44;;;0.97;100.00
47556;BME280;33291;46.222;26.460;2023-04-07T23:55:44;96732.34;;;0.96;100.00
47556;BME280;33291;46.222;26.460;2023-04-07T23:58:10;96729.91;;;0.93;100.00
